createdAt,value
2022-12-08T00:00:13.128Z,2.25708
2022-12-08T00:01:22.873Z,2.236938
2022-12-08T00:02:32.720Z,2.247009
2022-12-08T00:03:42.363Z,2.216797
2022-12-08T00:04:50.990Z,2.196655
2022-12-08T00:06:00.733Z,2.176514
2022-12-08T00:07:09.475Z,2.146301
2022-12-08T00:08:17.254Z,2.146301
2022-12-08T00:09:26.889Z,2.166443
2022-12-08T00:10:48.760Z,2.196655
2022-12-08T00:11:48.209Z,2.196655
2022-12-08T00:12:57.958Z,2.216797
2022-12-08T00:14:06.666Z,2.216797
2022-12-08T00:15:16.420Z,2.236938
2022-12-08T00:16:26.270Z,2.247009
2022-12-08T00:17:35.879Z,2.247009
2022-12-08T00:18:45.584Z,2.287292
2022-12-08T00:19:55.275Z,2.287292
2022-12-08T00:21:04.999Z,2.287292
2022-12-08T00:22:14.772Z,2.25708
2022-12-08T00:23:24.417Z,2.277222
2022-12-08T00:24:34.161Z,2.25708
2022-12-08T00:25:42.871Z,2.25708
2022-12-08T00:26:51.556Z,2.277222
2022-12-08T00:28:01.252Z,2.277222
2022-12-08T00:29:15.933Z,2.287292
2022-12-08T00:30:20.731Z,2.287292
2022-12-08T00:31:30.549Z,2.307434
2022-12-08T00:32:38.172Z,2.307434
2022-12-08T00:33:47.907Z,2.277222
2022-12-08T00:34:57.606Z,2.287292
2022-12-08T00:36:07.328Z,2.277222
2022-12-08T00:37:17.031Z,2.307434
2022-12-08T00:38:25.747Z,2.287292
2022-12-08T00:39:36.143Z,2.287292
2022-12-08T00:40:45.126Z,2.287292
2022-12-08T00:41:53.847Z,2.277222
2022-12-08T00:43:02.516Z,2.25708
2022-12-08T00:44:11.220Z,2.277222
2022-12-08T00:45:20.933Z,2.236938
2022-12-08T00:46:30.668Z,2.216797
2022-12-08T00:47:39.352Z,2.196655
2022-12-08T00:48:49.044Z,2.166443
2022-12-08T00:49:58.785Z,2.176514
2022-12-08T00:51:08.485Z,2.146301
2022-12-08T00:52:18.197Z,2.146301
2022-12-08T00:53:27.931Z,2.13623
2022-12-08T00:54:36.641Z,2.13623
2022-12-08T00:55:46.348Z,2.146301
2022-12-08T00:56:55.047Z,2.146301
2022-12-08T00:58:04.757Z,2.176514
2022-12-08T00:59:14.468Z,2.166443
2022-12-08T01:00:24.214Z,2.146301
2022-12-08T01:01:33.959Z,2.146301
2022-12-08T01:02:43.583Z,2.106018
2022-12-08T01:03:53.311Z,2.13623
2022-12-08T01:05:03.080Z,2.13623
2022-12-08T01:06:12.784Z,2.13623
2022-12-08T01:07:22.566Z,2.13623
2022-12-08T01:08:32.255Z,2.13623
2022-12-08T01:09:40.934Z,2.146301
2022-12-08T01:10:50.671Z,2.166443
2022-12-08T01:12:00.362Z,2.166443
2022-12-08T01:13:10.062Z,2.166443
2022-12-08T01:14:19.892Z,2.166443
2022-12-08T01:15:29.651Z,2.13623
2022-12-08T01:16:38.432Z,2.146301
2022-12-08T01:17:48.063Z,2.12616
2022-12-08T01:18:58.783Z,2.146301
2022-12-08T01:20:08.528Z,2.146301
2022-12-08T01:21:18.229Z,2.146301
2022-12-08T01:22:27.969Z,2.13623
2022-12-08T01:23:37.671Z,2.146301
2022-12-08T01:24:45.367Z,2.12616
2022-12-08T01:25:54.159Z,2.106018
2022-12-08T01:27:03.855Z,2.095947
2022-12-08T01:28:13.557Z,2.106018
2022-12-08T01:29:23.266Z,2.095947
2022-12-08T01:30:32.981Z,2.095947
2022-12-08T01:31:41.676Z,2.095947
2022-12-08T01:32:51.343Z,2.095947
2022-12-08T01:34:00.107Z,2.095947
2022-12-08T01:35:09.793Z,2.075806
2022-12-08T01:36:19.512Z,2.065735
2022-12-08T01:37:28.206Z,2.055664
2022-12-08T01:38:37.901Z,2.055664
2022-12-08T01:39:47.623Z,2.075806
2022-12-08T01:40:56.320Z,2.075806
2022-12-08T01:42:06.039Z,2.065735
2022-12-08T01:43:15.715Z,2.055664
2022-12-08T01:44:25.420Z,2.035522
2022-12-08T01:45:35.158Z,2.055664
2022-12-08T01:46:44.934Z,2.035522
2022-12-08T01:47:54.598Z,2.015381
2022-12-08T01:49:03.308Z,2.035522
2022-12-08T01:50:13.034Z,1.995239
2022-12-08T01:51:22.769Z,2.015381
2022-12-08T01:52:31.444Z,1.965027
2022-12-08T01:53:41.154Z,1.965027
2022-12-08T01:54:48.872Z,1.954956
2022-12-08T01:55:58.610Z,1.965027
2022-12-08T01:57:08.343Z,1.965027
2022-12-08T01:58:18.044Z,1.954956
2022-12-08T01:59:27.757Z,1.914673
2022-12-08T02:00:36.459Z,1.924744
2022-12-08T02:01:44.212Z,1.914673
2022-12-08T02:02:53.985Z,1.914673
2022-12-08T02:04:02.633Z,1.894531
2022-12-08T02:05:12.349Z,1.88446
2022-12-08T02:06:22.127Z,1.88446
2022-12-08T02:07:31.016Z,1.88446
2022-12-08T02:08:40.738Z,1.88446
2022-12-08T02:09:50.434Z,1.914673
2022-12-08T02:11:00.216Z,1.914673
2022-12-08T02:12:09.848Z,1.924744
2022-12-08T02:13:17.686Z,1.924744
2022-12-08T02:14:27.442Z,1.914673
2022-12-08T02:15:37.207Z,1.894531
2022-12-08T02:16:46.909Z,1.88446
2022-12-08T02:17:56.645Z,1.894531
2022-12-08T02:19:30.132Z,1.914673
2022-12-08T02:20:17.049Z,1.914673
2022-12-08T02:21:26.786Z,1.88446
2022-12-08T02:22:35.504Z,1.894531
2022-12-08T02:23:45.163Z,1.844177
2022-12-08T02:24:54.850Z,1.813965
2022-12-08T02:26:04.557Z,1.783752
2022-12-08T02:27:14.273Z,1.773682
2022-12-08T02:28:23.982Z,1.743469
2022-12-08T02:29:32.709Z,1.713257
2022-12-08T02:30:42.464Z,1.713257
2022-12-08T02:31:52.143Z,1.713257
2022-12-08T02:33:00.852Z,1.743469
2022-12-08T02:34:10.560Z,1.763611
2022-12-08T02:35:20.255Z,1.783752
2022-12-08T02:36:29.995Z,1.763611
2022-12-08T02:37:39.756Z,1.743469
2022-12-08T02:38:49.424Z,1.733398
2022-12-08T02:39:59.140Z,1.683044
2022-12-08T02:41:06.839Z,1.662903
2022-12-08T02:42:16.555Z,1.63269
2022-12-08T02:43:26.286Z,1.602478
2022-12-08T02:44:36.046Z,1.592407
2022-12-08T02:45:45.780Z,1.602478
2022-12-08T02:46:55.489Z,1.602478
2022-12-08T02:48:05.200Z,1.62262
2022-12-08T02:49:14.887Z,1.662903
2022-12-08T02:50:24.594Z,1.703186
2022-12-08T02:51:34.315Z,1.713257
2022-12-08T02:52:44.052Z,1.743469
2022-12-08T02:53:53.797Z,1.743469
2022-12-08T02:55:03.476Z,1.733398
2022-12-08T02:56:13.200Z,1.743469
2022-12-08T02:57:23.041Z,1.713257
2022-12-08T02:58:32.773Z,1.733398
2022-12-08T02:59:42.462Z,1.713257
2022-12-08T03:00:51.206Z,1.733398
2022-12-08T03:02:01.025Z,1.743469
2022-12-08T03:03:10.641Z,1.783752
2022-12-08T03:04:20.313Z,1.803894
2022-12-08T03:05:30.031Z,1.803894
2022-12-08T03:06:38.755Z,1.783752
2022-12-08T03:07:48.533Z,1.813965
2022-12-08T03:08:57.152Z,1.813965
2022-12-08T03:10:07.104Z,1.844177
2022-12-08T03:11:16.553Z,1.813965
2022-12-08T03:12:26.285Z,1.813965
2022-12-08T03:13:35.990Z,1.844177
2022-12-08T03:14:45.681Z,1.844177
2022-12-08T03:15:55.502Z,1.813965
2022-12-08T03:17:05.169Z,1.844177
2022-12-08T03:18:15.910Z,1.844177
2022-12-08T03:19:24.645Z,1.844177
2022-12-08T03:20:34.370Z,1.844177
2022-12-08T03:21:44.064Z,1.854248
2022-12-08T03:22:53.778Z,1.813965
2022-12-08T03:24:03.468Z,1.844177
2022-12-08T03:25:12.202Z,1.813965
2022-12-08T03:26:21.923Z,1.803894
2022-12-08T03:27:31.721Z,1.763611
2022-12-08T03:28:41.638Z,1.763611
2022-12-08T03:29:51.342Z,1.743469
2022-12-08T03:31:01.142Z,1.713257
2022-12-08T03:32:10.803Z,1.713257
2022-12-08T03:33:20.540Z,1.703186
2022-12-08T03:34:30.264Z,1.713257
2022-12-08T03:35:40.030Z,1.733398
2022-12-08T03:36:48.733Z,1.743469
2022-12-08T03:37:57.547Z,1.743469
2022-12-08T03:39:07.301Z,1.743469
2022-12-08T03:40:15.948Z,1.743469
2022-12-08T03:41:25.712Z,1.743469
2022-12-08T03:42:35.459Z,1.743469
2022-12-08T03:43:44.226Z,1.743469
2022-12-08T03:44:53.991Z,1.733398
2022-12-08T03:46:02.813Z,1.683044
2022-12-08T03:47:12.446Z,1.672974
2022-12-08T03:48:22.182Z,1.662903
2022-12-08T03:49:31.919Z,1.672974
2022-12-08T03:50:40.635Z,1.62262
2022-12-08T03:51:49.383Z,1.602478
2022-12-08T03:52:59.125Z,1.602478
2022-12-08T03:54:08.881Z,1.63269
2022-12-08T03:55:18.586Z,1.662903
2022-12-08T03:56:28.292Z,1.63269
2022-12-08T03:57:37.008Z,1.62262
2022-12-08T03:58:45.766Z,1.63269
2022-12-08T03:59:55.507Z,1.662903
2022-12-08T04:01:03.226Z,1.662903
2022-12-08T04:02:13.069Z,1.62262
2022-12-08T04:03:22.787Z,1.62262
2022-12-08T04:04:32.439Z,1.592407
2022-12-08T04:05:42.143Z,1.582336
2022-12-08T04:06:50.852Z,1.562195
2022-12-08T04:08:00.593Z,1.552124
2022-12-08T04:09:10.289Z,1.521912
2022-12-08T04:10:19.075Z,1.531982
2022-12-08T04:11:28.762Z,1.521912
2022-12-08T04:12:38.504Z,1.50177
2022-12-08T04:13:48.239Z,1.491699
2022-12-08T04:14:57.948Z,1.441345
2022-12-08T04:16:06.734Z,1.441345
2022-12-08T04:17:17.416Z,1.421204
2022-12-08T04:18:27.101Z,1.421204
2022-12-08T04:19:35.824Z,1.451416
2022-12-08T04:20:45.540Z,1.451416
2022-12-08T04:21:54.299Z,1.451416
2022-12-08T04:23:04.039Z,1.421204
2022-12-08T04:24:13.781Z,1.421204
2022-12-08T04:25:22.520Z,1.401062
2022-12-08T04:26:32.242Z,1.38092
2022-12-08T04:27:42.027Z,1.350708
2022-12-08T04:28:51.768Z,1.340637
2022-12-08T04:30:01.702Z,1.38092
2022-12-08T04:31:11.287Z,1.401062
2022-12-08T04:32:19.978Z,1.401062
2022-12-08T04:33:29.737Z,1.411133
2022-12-08T04:34:39.478Z,1.38092
2022-12-08T04:35:48.232Z,1.38092
2022-12-08T04:36:57.998Z,1.350708
2022-12-08T04:38:06.711Z,1.350708
2022-12-08T04:39:16.454Z,1.320496
2022-12-08T04:40:26.203Z,1.320496
2022-12-08T04:41:34.922Z,1.340637
2022-12-08T04:42:44.652Z,1.37085
2022-12-08T04:43:54.375Z,1.340637
2022-12-08T04:45:04.201Z,1.38092
2022-12-08T04:46:13.978Z,1.37085
2022-12-08T04:47:22.638Z,1.411133
2022-12-08T04:48:32.373Z,1.411133
2022-12-08T04:49:42.108Z,1.411133
2022-12-08T04:50:51.880Z,1.421204
2022-12-08T04:52:01.600Z,1.411133
2022-12-08T04:53:11.344Z,1.38092
2022-12-08T04:54:21.050Z,1.37085
2022-12-08T04:55:30.816Z,1.37085
2022-12-08T04:56:39.555Z,1.37085
2022-12-08T04:57:49.274Z,1.340637
2022-12-08T04:58:59.007Z,1.320496
2022-12-08T05:00:07.891Z,1.310425
2022-12-08T05:01:17.515Z,1.320496
2022-12-08T05:02:27.302Z,1.320496
2022-12-08T05:03:36.991Z,1.350708
2022-12-08T05:04:46.783Z,1.320496
2022-12-08T05:05:55.513Z,1.340637
2022-12-08T05:07:05.272Z,1.350708
2022-12-08T05:08:15.088Z,1.340637
2022-12-08T05:09:24.733Z,1.320496
2022-12-08T05:10:34.498Z,1.340637
2022-12-08T05:11:48.749Z,1.310425
2022-12-08T05:12:53.917Z,1.340637
2022-12-08T05:14:03.676Z,1.340637
2022-12-08T05:15:12.397Z,1.37085
2022-12-08T05:16:22.166Z,1.37085
2022-12-08T05:17:31.986Z,1.37085
2022-12-08T05:18:41.833Z,1.401062
2022-12-08T05:19:51.602Z,1.421204
2022-12-08T05:21:01.349Z,1.411133
2022-12-08T05:22:11.053Z,1.421204
2022-12-08T05:23:20.801Z,1.441345
2022-12-08T05:24:29.523Z,1.451416
2022-12-08T05:25:39.369Z,1.481628
2022-12-08T05:26:48.217Z,1.481628
2022-12-08T05:28:11.593Z,1.451416
2022-12-08T05:29:08.692Z,1.441345
2022-12-08T05:30:18.543Z,1.421204
2022-12-08T05:31:28.330Z,1.441345
2022-12-08T05:32:38.048Z,1.421204
2022-12-08T05:33:45.879Z,1.421204
2022-12-08T05:34:56.680Z,1.421204
2022-12-08T05:36:06.413Z,1.421204
2022-12-08T05:37:16.155Z,1.421204
2022-12-08T05:38:25.929Z,1.441345
2022-12-08T05:39:34.639Z,1.421204
2022-12-08T05:40:44.402Z,1.441345
2022-12-08T05:41:54.166Z,1.441345
2022-12-08T05:43:03.022Z,1.441345
2022-12-08T05:44:12.776Z,1.421204
2022-12-08T05:45:21.494Z,1.441345
2022-12-08T05:46:31.263Z,1.421204
2022-12-08T05:47:40.989Z,1.411133
2022-12-08T05:48:50.816Z,1.411133
2022-12-08T05:50:00.549Z,1.441345
2022-12-08T05:51:10.359Z,1.401062
2022-12-08T05:52:20.103Z,1.411133
2022-12-08T05:53:30.860Z,1.411133
2022-12-08T05:54:40.652Z,1.411133
2022-12-08T05:55:50.457Z,1.401062
2022-12-08T05:57:00.266Z,1.401062
2022-12-08T05:58:08.258Z,1.401062
2022-12-08T05:59:17.621Z,1.401062
2022-12-08T06:00:26.324Z,1.38092
2022-12-08T06:01:35.070Z,1.38092
2022-12-08T06:02:44.850Z,1.38092
2022-12-08T06:03:52.392Z,1.401062
2022-12-08T06:05:02.095Z,1.401062
2022-12-08T06:06:11.786Z,1.411133
2022-12-08T06:07:19.452Z,1.441345
2022-12-08T06:08:29.204Z,1.441345
2022-12-08T06:09:38.861Z,1.421204
2022-12-08T06:10:47.568Z,1.451416
2022-12-08T06:11:57.318Z,1.441345
2022-12-08T06:13:05.979Z,1.441345
2022-12-08T06:14:15.669Z,1.441345
2022-12-08T06:15:25.340Z,1.421204
2022-12-08T06:16:34.074Z,1.411133
2022-12-08T06:17:42.744Z,1.38092
2022-12-08T06:18:51.420Z,1.37085
2022-12-08T06:20:01.215Z,1.37085
2022-12-08T06:21:10.878Z,1.350708
2022-12-08T06:22:18.549Z,1.350708
2022-12-08T06:23:28.251Z,1.37085
2022-12-08T06:24:36.979Z,1.37085
2022-12-08T06:25:44.609Z,1.401062
2022-12-08T06:26:54.295Z,1.411133
2022-12-08T06:28:02.008Z,1.38092
2022-12-08T06:29:10.680Z,1.38092
2022-12-08T06:30:20.355Z,1.38092
2022-12-08T06:31:28.079Z,1.401062
2022-12-08T06:32:37.724Z,1.37085
2022-12-08T06:33:46.444Z,1.350708
2022-12-08T06:34:55.301Z,1.320496
2022-12-08T06:36:05.007Z,1.280212
2022-12-08T06:37:13.679Z,1.260071
2022-12-08T06:38:22.375Z,1.219788
2022-12-08T06:39:32.098Z,1.239929
2022-12-08T06:40:41.777Z,1.300354
2022-12-08T06:41:51.455Z,1.320496
2022-12-08T06:43:00.175Z,1.320496
2022-12-08T06:44:09.880Z,1.320496
2022-12-08T06:45:19.545Z,1.340637
2022-12-08T06:46:27.326Z,1.310425
2022-12-08T06:47:37.011Z,1.310425
2022-12-08T06:48:46.682Z,1.300354
2022-12-08T06:49:54.384Z,1.300354
2022-12-08T06:51:04.094Z,1.310425
2022-12-08T06:52:12.814Z,1.310425
2022-12-08T06:53:21.542Z,1.340637
2022-12-08T06:54:31.221Z,1.340637
2022-12-08T06:55:58.629Z,1.320496
2022-12-08T06:56:51.611Z,1.300354
2022-12-08T06:58:02.323Z,1.280212
2022-12-08T06:59:11.006Z,1.260071
2022-12-08T07:00:20.702Z,1.260071
2022-12-08T07:01:30.409Z,1.260071
2022-12-08T07:02:38.084Z,1.260071
2022-12-08T07:03:48.723Z,1.300354
2022-12-08T07:04:57.432Z,1.280212
2022-12-08T07:06:07.133Z,1.300354
2022-12-08T07:07:15.807Z,1.280212
2022-12-08T07:08:24.599Z,1.239929
2022-12-08T07:09:34.210Z,1.239929
2022-12-08T07:10:42.906Z,1.260071
2022-12-08T07:11:50.592Z,1.239929
2022-12-08T07:13:00.297Z,1.260071
2022-12-08T07:14:08.032Z,1.280212
2022-12-08T07:15:16.798Z,1.260071
2022-12-08T07:16:26.570Z,1.280212
2022-12-08T07:17:34.173Z,1.310425
2022-12-08T07:18:43.862Z,1.37085
2022-12-08T07:19:53.548Z,1.421204
2022-12-08T07:21:02.313Z,1.531982
2022-12-08T07:22:11.075Z,1.662903
2022-12-08T07:23:18.761Z,1.763611
2022-12-08T07:24:28.444Z,1.87439
2022-12-08T07:25:38.126Z,1.965027
2022-12-08T07:26:46.817Z,2.095947
2022-12-08T07:27:56.524Z,2.25708
2022-12-08T07:29:05.247Z,2.438354
2022-12-08T07:30:12.911Z,2.599487
2022-12-08T07:31:22.635Z,2.750549
2022-12-08T07:32:32.306Z,2.851257
2022-12-08T07:33:40.977Z,2.921753
2022-12-08T07:34:50.632Z,2.972107
2022-12-08T07:36:00.322Z,3.042603
2022-12-08T07:37:10.000Z,3.163452
2022-12-08T07:38:20.206Z,3.314514
2022-12-08T07:39:29.877Z,3.314514
2022-12-08T07:40:39.580Z,3.324585
2022-12-08T07:41:47.249Z,3.374939
2022-12-08T07:42:56.918Z,3.465576
2022-12-08T07:44:06.622Z,3.586426
2022-12-08T07:45:15.307Z,3.737488
2022-12-08T07:46:26.001Z,3.938904
2022-12-08T07:47:34.667Z,4.160461
2022-12-08T07:48:44.341Z,4.371948
2022-12-08T07:49:53.044Z,4.553223
2022-12-08T07:51:00.711Z,4.633789
2022-12-08T07:52:10.401Z,4.553223
2022-12-08T07:53:20.101Z,4.402161
2022-12-08T07:54:28.803Z,4.402161
2022-12-08T07:55:38.582Z,4.442444
2022-12-08T07:56:46.255Z,4.583435
2022-12-08T07:57:54.932Z,4.704285
2022-12-08T07:59:02.619Z,4.704285
2022-12-08T08:00:10.312Z,4.674072
2022-12-08T08:01:20.153Z,4.684143
2022-12-08T08:02:29.865Z,4.804993
2022-12-08T08:03:38.413Z,5.066833
2022-12-08T08:04:48.139Z,5.318604
2022-12-08T08:05:55.757Z,5.499878
2022-12-08T08:07:05.436Z,5.822144
2022-12-08T08:08:14.155Z,6.204834
2022-12-08T08:09:22.775Z,6.446533
2022-12-08T08:10:32.432Z,6.587524
2022-12-08T08:11:40.122Z,6.809082
2022-12-08T08:12:51.535Z,6.77887
2022-12-08T08:14:01.187Z,6.698303
2022-12-08T08:15:09.867Z,6.627808
2022-12-08T08:16:18.761Z,6.809082
2022-12-08T08:17:27.449Z,7.03064
2022-12-08T08:18:34.937Z,7.050781
2022-12-08T08:19:44.643Z,6.617737
2022-12-08T08:20:53.274Z,6.224976
2022-12-08T08:22:03.982Z,6.02356
2022-12-08T08:23:13.669Z,6.02356
2022-12-08T08:24:22.340Z,6.144409
2022-12-08T08:25:32.019Z,6.355896
2022-12-08T08:26:40.710Z,6.668091
2022-12-08T08:27:48.385Z,7.03064
2022-12-08T08:28:58.079Z,7.362976
2022-12-08T08:30:05.933Z,7.503967
2022-12-08T08:31:16.568Z,7.78595
2022-12-08T08:32:26.152Z,7.78595
2022-12-08T08:33:35.819Z,7.564392
2022-12-08T08:34:45.492Z,7.151489
2022-12-08T08:35:54.265Z,6.929932
2022-12-08T08:37:03.963Z,6.849365
2022-12-08T08:38:13.595Z,7.020569
2022-12-08T08:39:22.262Z,7.29248
2022-12-08T08:40:30.929Z,7.514038
2022-12-08T08:41:40.628Z,7.846375
2022-12-08T08:42:49.307Z,8.057861
2022-12-08T08:43:59.007Z,7.906799
2022-12-08T08:45:07.714Z,7.725525
2022-12-08T08:46:16.429Z,7.564392
2022-12-08T08:47:26.101Z,7.171631
2022-12-08T08:48:33.754Z,6.990356
2022-12-08T08:49:43.446Z,7.101135
2022-12-08T08:50:53.132Z,7.252197
2022-12-08T08:52:00.867Z,7.352905
2022-12-08T08:53:10.582Z,7.383118
2022-12-08T08:54:19.289Z,7.483826
2022-12-08T08:55:26.969Z,7.514038
2022-12-08T08:56:36.681Z,7.584534
2022-12-08T08:57:45.349Z,7.584534
2022-12-08T08:58:54.027Z,7.453613
2022-12-08T09:00:03.989Z,7.383118
2022-12-08T09:01:11.473Z,7.232056
2022-12-08T09:02:21.197Z,7.050781
2022-12-08T09:03:30.765Z,6.950073
2022-12-08T09:04:39.469Z,6.929932
2022-12-08T09:05:49.154Z,7.101135
2022-12-08T09:06:56.799Z,7.28241
2022-12-08T09:08:05.527Z,7.483826
2022-12-08T09:09:15.117Z,7.54425
2022-12-08T09:10:23.823Z,7.614746
2022-12-08T09:11:33.464Z,7.634888
2022-12-08T09:12:43.137Z,7.695312
2022-12-08T09:13:50.811Z,7.715454
2022-12-08T09:15:00.496Z,7.725525
2022-12-08T09:16:08.278Z,7.745667
2022-12-08T09:17:16.892Z,7.745667
2022-12-08T09:18:26.585Z,7.685242
2022-12-08T09:19:35.262Z,7.53418
2022-12-08T09:20:44.939Z,7.433472
2022-12-08T09:21:53.721Z,7.514038
2022-12-08T09:23:02.394Z,7.614746
2022-12-08T09:24:12.124Z,7.6651
2022-12-08T09:25:20.803Z,7.53418
2022-12-08T09:26:29.481Z,7.383118
2022-12-08T09:27:39.178Z,7.252197
2022-12-08T09:28:48.877Z,7.232056
2022-12-08T09:29:58.578Z,7.181702
2022-12-08T09:31:07.466Z,7.141418
2022-12-08T09:32:16.133Z,7.070923
2022-12-08T09:33:25.823Z,7.111206
2022-12-08T09:34:33.508Z,7.211914
2022-12-08T09:35:42.272Z,7.332764
2022-12-08T09:36:51.941Z,7.403259
2022-12-08T09:38:01.628Z,7.53418
2022-12-08T09:39:11.342Z,7.28241
2022-12-08T09:40:21.105Z,7.111206
2022-12-08T09:41:35.866Z,7.131348
2022-12-08T09:42:41.334Z,7.201843
2022-12-08T09:43:50.008Z,7.332764
2022-12-08T09:44:59.711Z,7.483826
2022-12-08T09:46:07.416Z,7.53418
2022-12-08T09:47:16.073Z,7.695312
2022-12-08T09:48:25.746Z,7.947083
2022-12-08T09:49:35.421Z,8.078003
2022-12-08T09:50:45.135Z,8.047791
2022-12-08T09:51:53.803Z,8.027649
2022-12-08T09:53:01.473Z,7.977295
2022-12-08T09:54:11.139Z,7.755737
2022-12-08T09:55:19.795Z,7.614746
2022-12-08T09:56:28.517Z,7.634888
2022-12-08T09:57:38.183Z,7.725525
2022-12-08T09:58:46.858Z,7.755737
2022-12-08T09:59:56.542Z,7.614746
2022-12-08T10:01:06.227Z,7.54425
2022-12-08T10:02:13.950Z,7.584534
2022-12-08T10:03:23.673Z,7.634888
2022-12-08T10:04:32.570Z,7.574463
2022-12-08T10:05:42.021Z,7.54425
2022-12-08T10:06:51.675Z,7.564392
2022-12-08T10:07:59.380Z,7.54425
2022-12-08T10:09:12.397Z,7.433472
2022-12-08T10:10:19.683Z,7.312622
2022-12-08T10:11:27.323Z,7.111206
2022-12-08T10:12:37.054Z,6.970215
2022-12-08T10:13:45.738Z,6.919861
2022-12-08T10:14:53.384Z,6.869507
2022-12-08T10:16:03.150Z,6.819153
2022-12-08T10:17:12.774Z,6.77887
2022-12-08T10:18:22.468Z,6.688232
2022-12-08T10:19:30.181Z,6.506958
2022-12-08T10:20:37.871Z,6.345825
2022-12-08T10:21:47.565Z,6.224976
2022-12-08T10:22:56.265Z,6.094055
2022-12-08T10:24:05.965Z,5.993347
2022-12-08T10:25:15.714Z,5.862427
2022-12-08T10:26:24.430Z,5.832214
2022-12-08T10:27:34.103Z,5.832214
2022-12-08T10:28:45.014Z,5.751648
2022-12-08T10:29:51.445Z,5.691223
2022-12-08T10:31:01.199Z,5.620728
2022-12-08T10:32:10.806Z,5.499878
2022-12-08T10:33:19.474Z,5.439453
2022-12-08T10:34:29.152Z,5.348816
2022-12-08T10:35:37.829Z,5.318604
2022-12-08T10:36:47.559Z,5.258179
2022-12-08T10:37:57.234Z,5.207825
2022-12-08T10:39:05.959Z,5.227966
2022-12-08T10:40:15.718Z,5.288391
2022-12-08T10:41:24.388Z,5.328674
2022-12-08T10:42:34.139Z,5.328674
2022-12-08T10:43:43.850Z,5.358887
2022-12-08T10:44:52.547Z,5.328674
2022-12-08T10:46:02.243Z,5.318604
2022-12-08T10:47:10.978Z,5.328674
2022-12-08T10:48:20.638Z,5.318604
2022-12-08T10:49:30.444Z,5.358887
2022-12-08T10:50:39.130Z,5.379028
2022-12-08T10:51:47.816Z,5.439453
2022-12-08T10:52:57.516Z,5.429382
2022-12-08T10:54:05.251Z,5.389099
2022-12-08T10:55:15.929Z,5.409241
2022-12-08T10:56:25.647Z,5.358887
2022-12-08T10:57:34.327Z,5.298462
2022-12-08T10:58:44.343Z,5.288391
2022-12-08T10:59:53.118Z,5.248108
2022-12-08T11:01:03.025Z,5.258179
2022-12-08T11:02:12.739Z,5.248108
2022-12-08T11:03:21.357Z,5.288391
2022-12-08T11:04:31.124Z,5.298462
2022-12-08T11:05:39.817Z,5.348816
2022-12-08T11:06:48.544Z,5.389099
2022-12-08T11:07:58.324Z,5.459595
2022-12-08T11:09:06.983Z,5.389099
2022-12-08T11:10:16.756Z,5.389099
2022-12-08T11:11:29.448Z,5.389099
2022-12-08T11:12:35.065Z,5.348816
2022-12-08T11:13:44.726Z,5.358887
2022-12-08T11:14:53.428Z,5.389099
2022-12-08T11:16:01.136Z,5.409241
2022-12-08T11:17:10.907Z,5.358887
2022-12-08T11:18:19.580Z,5.328674
2022-12-08T11:19:28.298Z,5.389099
2022-12-08T11:20:37.050Z,5.439453
2022-12-08T11:21:44.730Z,5.479736
2022-12-08T11:22:54.421Z,5.540161
2022-12-08T11:24:03.139Z,5.560303
2022-12-08T11:25:11.828Z,5.540161
2022-12-08T11:26:21.490Z,5.459595
2022-12-08T11:27:30.191Z,5.379028
2022-12-08T11:28:38.901Z,5.288391
2022-12-08T11:29:48.605Z,5.288391
2022-12-08T11:30:57.299Z,5.348816
2022-12-08T11:32:07.051Z,5.288391
2022-12-08T11:33:15.706Z,5.27832
2022-12-08T11:34:25.418Z,5.197754
2022-12-08T11:35:35.105Z,5.177612
2022-12-08T11:36:42.803Z,5.207825
2022-12-08T11:37:51.497Z,5.258179
2022-12-08T11:39:02.161Z,5.288391
2022-12-08T11:40:10.899Z,5.248108
2022-12-08T11:41:20.592Z,5.207825
2022-12-08T11:42:29.315Z,5.207825
2022-12-08T11:43:38.975Z,5.27832
2022-12-08T11:44:47.678Z,5.358887
2022-12-08T11:45:55.418Z,5.439453
2022-12-08T11:47:05.117Z,5.540161
2022-12-08T11:48:14.818Z,5.610657
2022-12-08T11:49:23.514Z,5.640869
2022-12-08T11:50:33.174Z,5.661011
2022-12-08T11:51:40.883Z,5.711365
2022-12-08T11:52:50.558Z,5.721436
2022-12-08T11:54:00.227Z,5.761719
2022-12-08T11:55:07.936Z,5.761719
2022-12-08T11:56:17.671Z,5.822144
2022-12-08T11:57:26.353Z,5.761719
2022-12-08T11:58:35.026Z,5.711365
2022-12-08T11:59:44.705Z,5.691223
2022-12-08T12:00:53.384Z,5.691223
2022-12-08T12:02:03.191Z,5.691223
2022-12-08T12:03:11.842Z,5.570374
2022-12-08T12:04:20.500Z,5.479736
2022-12-08T12:05:40.097Z,5.540161
2022-12-08T12:06:56.259Z,5.560303
2022-12-08T12:07:51.631Z,5.560303
2022-12-08T12:09:01.234Z,5.610657
2022-12-08T12:10:08.898Z,5.610657
2022-12-08T12:11:18.656Z,5.540161
2022-12-08T12:12:28.356Z,5.560303
2022-12-08T12:13:39.008Z,5.570374
2022-12-08T12:14:48.695Z,5.640869
2022-12-08T12:15:58.389Z,5.65094
2022-12-08T12:17:08.208Z,5.661011
2022-12-08T12:18:17.835Z,5.65094
2022-12-08T12:19:25.504Z,5.711365
2022-12-08T12:20:35.239Z,5.751648
2022-12-08T12:21:44.973Z,5.691223
2022-12-08T12:22:52.675Z,5.691223
2022-12-08T12:24:02.345Z,5.711365
2022-12-08T12:25:10.032Z,5.681152
2022-12-08T12:26:19.710Z,5.620728
2022-12-08T12:27:29.405Z,5.590515
2022-12-08T12:28:38.087Z,5.499878
2022-12-08T12:29:50.909Z,5.469666
2022-12-08T12:30:57.564Z,5.479736
2022-12-08T12:32:06.190Z,5.53009
2022-12-08T12:33:15.889Z,5.570374
2022-12-08T12:34:25.622Z,5.640869
2022-12-08T12:35:35.306Z,5.691223
2022-12-08T12:36:45.000Z,5.731506
2022-12-08T12:37:52.670Z,5.751648
2022-12-08T12:39:02.378Z,5.731506
2022-12-08T12:40:11.106Z,5.731506
2022-12-08T12:41:23.868Z,5.721436
2022-12-08T12:42:28.422Z,5.731506
2022-12-08T12:43:36.105Z,5.691223
2022-12-08T12:44:45.773Z,5.661011
2022-12-08T12:45:55.504Z,5.65094
2022-12-08T12:47:05.120Z,5.65094
2022-12-08T12:48:14.828Z,5.661011
2022-12-08T12:49:24.672Z,5.691223
2022-12-08T12:50:33.432Z,5.751648
2022-12-08T12:51:43.011Z,5.802002
2022-12-08T12:52:51.745Z,5.822144
2022-12-08T12:54:01.407Z,5.822144
2022-12-08T12:55:11.106Z,5.751648
2022-12-08T12:56:19.788Z,5.731506
2022-12-08T12:57:29.457Z,5.731506
2022-12-08T12:58:38.161Z,5.711365
2022-12-08T12:59:48.958Z,5.711365
2022-12-08T13:00:56.591Z,5.711365
2022-12-08T13:02:05.264Z,5.620728
2022-12-08T13:03:13.919Z,5.570374
2022-12-08T13:04:23.592Z,5.540161
2022-12-08T13:05:33.285Z,5.509949
2022-12-08T13:06:43.028Z,5.459595
2022-12-08T13:07:52.793Z,5.429382
2022-12-08T13:09:00.424Z,5.469666
2022-12-08T13:10:10.192Z,5.439453
2022-12-08T13:11:19.889Z,5.429382
2022-12-08T13:12:29.582Z,5.439453
2022-12-08T13:13:39.290Z,5.389099
2022-12-08T13:14:46.987Z,5.348816
2022-12-08T13:15:56.701Z,5.318604
2022-12-08T13:17:07.400Z,5.328674
2022-12-08T13:18:16.012Z,5.379028
2022-12-08T13:19:25.716Z,5.379028
2022-12-08T13:20:33.388Z,5.358887
2022-12-08T13:21:43.105Z,5.358887
2022-12-08T13:22:52.760Z,5.409241
2022-12-08T13:24:01.481Z,5.429382
2022-12-08T13:25:11.205Z,5.459595
2022-12-08T13:26:20.917Z,5.499878
2022-12-08T13:27:30.607Z,5.53009
2022-12-08T13:28:40.278Z,5.499878
2022-12-08T13:29:48.966Z,5.469666
2022-12-08T13:30:58.651Z,5.429382
2022-12-08T13:32:08.330Z,5.389099
2022-12-08T13:33:18.344Z,5.409241
2022-12-08T13:34:25.716Z,5.459595
2022-12-08T13:35:34.434Z,5.469666
2022-12-08T13:36:43.127Z,5.499878